Time;durP1;ratioP1;P1;durP2;ratioP2;P2;SDS_P1;SDS_P2;PMS_P1;PMS_P2;Temp;Humidity;BMP_temperature;BMP_pressure;BME280_temperature;BME280_humidity;BME280_pressure;Samples;Min_cycle;Max_cycle;Signal;HPM_P1;HPM_P2
2023/06/17 00:02:07;;;;;;;18.00;15.10;;;;;;;;;;5034653;28;20829;-75
2023/06/17 00:04:34;;;;;;;22.50;13.90;;;;;;;;;;5034902;28;20456;-75
2023/06/17 00:07:02;;;;;;;16.13;14.40;;;;;;;;;;5034597;28;20462;-74
2023/06/17 00:09:29;;;;;;;16.13;14.00;;;;;;;;;;5034244;28;20478;-75
2023/06/17 00:11:56;;;;;;;17.17;15.17;;;;;;;;;;5034466;28;20462;-75
2023/06/17 00:14:24;;;;;;;20.30;14.87;;;;;;;;;;5034342;28;20458;-75
2023/06/17 00:16:51;;;;;;;16.83;14.30;;;;;;;;;;5034368;28;20486;-75
2023/06/17 00:19:20;;;;;;;15.50;13.20;;;;;;;;;;5033959;28;20477;-74
2023/06/17 00:21:49;;;;;;;16.00;14.37;;;;;;;;;;5033778;28;20488;-74
2023/06/17 00:24:17;;;;;;;17.13;15.27;;;;;;;;;;5034195;28;20454;-74
2023/06/17 00:26:44;;;;;;;19.20;15.63;;;;;;;;;;5034124;28;20452;-75
2023/06/17 00:29:11;;;;;;;19.40;17.30;;;;;;;;;;5033493;28;20461;-75
2023/06/17 00:31:38;;;;;;;20.70;16.70;;;;;;;;;;5034157;28;20453;-75
2023/06/17 00:34:05;;;;;;;18.93;16.30;;;;;;;;;;5034041;28;20450;-75
2023/06/17 00:36:34;;;;;;;22.63;16.70;;;;;;;;;;5033924;28;20576;-75
2023/06/17 00:39:02;;;;;;;21.70;17.53;;;;;;;;;;5033655;28;20462;-75
2023/06/17 00:41:29;;;;;;;19.50;15.83;;;;;;;;;;5033762;28;20458;-75
2023/06/17 00:43:56;;;;;;;20.87;15.70;;;;;;;;;;5033811;28;20465;-75
2023/06/17 00:46:29;;;;;;;20.20;17.17;;;;;;;;;;5033842;28;20452;-75
2023/06/17 00:48:56;;;;;;;23.30;18.20;;;;;;;;;;5033616;28;20993;-74
2023/06/17 00:51:23;;;;;;;21.20;16.70;;;;;;;;;;5033587;28;20470;-75
2023/06/17 00:53:52;;;;;;;22.13;18.20;;;;;;;;;;5033669;28;20446;-75
2023/06/17 00:56:19;;;;;;;22.07;18.23;;;;;;;;;;5033377;28;20490;-75
2023/06/17 00:58:46;;;;;;;24.17;18.67;;;;;;;;;;5033681;28;20464;-75
2023/06/17 01:01:13;;;;;;;18.93;16.67;;;;;;;;;;5033415;28;20473;-75
2023/06/17 01:03:41;;;;;;;18.97;15.77;;;;;;;;;;5033566;28;20457;-75
2023/06/17 01:06:11;;;;;;;20.20;17.80;;;;;;;;;;5033633;28;20449;-75
2023/06/17 01:08:42;;;;;;;27.67;16.60;;;;;;;;;;5033263;28;20549;-75
2023/06/17 01:11:12;;;;;;;22.30;17.57;;;;;;;;;;5033370;28;20481;-75
2023/06/17 01:13:42;;;;;;;21.57;17.00;;;;;;;;;;5033497;28;20446;-74
2023/06/17 01:16:09;;;;;;;19.43;17.33;;;;;;;;;;5033116;28;20493;-75
2023/06/17 01:18:37;;;;;;;18.13;16.20;;;;;;;;;;5033069;28;20457;-75
2023/06/17 01:21:04;;;;;;;20.10;17.73;;;;;;;;;;5033149;28;20505;-74
2023/06/17 01:23:33;;;;;;;24.90;18.47;;;;;;;;;;5033225;28;20457;-74
2023/06/17 01:26:01;;;;;;;17.93;15.40;;;;;;;;;;5033206;28;20452;-74
2023/06/17 01:28:29;;;;;;;22.70;19.07;;;;;;;;;;5032944;28;20461;-75
2023/06/17 01:30:56;;;;;;;26.80;19.60;;;;;;;;;;5032629;28;20479;-75
2023/06/17 01:33:24;;;;;;;20.40;17.90;;;;;;;;;;5032875;28;20457;-75
2023/06/17 01:36:03;;;;;;;21.53;19.20;;;;;;;;;;5032960;28;20494;-75
2023/06/17 01:38:32;;;;;;;20.30;17.03;;;;;;;;;;5032907;28;20468;-75
2023/06/17 01:41:03;;;;;;;24.70;17.43;;;;;;;;;;5033002;28;20842;-75
2023/06/17 01:43:32;;;;;;;18.63;16.63;;;;;;;;;;5033249;28;20457;-74
2023/06/17 01:46:00;;;;;;;19.10;16.50;;;;;;;;;;5032785;28;20969;-74
2023/06/17 01:48:28;;;;;;;18.40;15.90;;;;;;;;;;5032831;28;20826;-75
2023/06/17 01:50:55;;;;;;;16.57;14.43;;;;;;;;;;5032814;28;20480;-75
2023/06/17 01:53:24;;;;;;;18.07;15.10;;;;;;;;;;5032802;28;20869;-75
2023/06/17 01:55:51;;;;;;;16.50;14.60;;;;;;;;;;5032955;28;20489;-75
2023/06/17 01:58:19;;;;;;;15.77;14.07;;;;;;;;;;5032775;28;20453;-75
2023/06/17 02:00:47;;;;;;;17.97;14.77;;;;;;;;;;5032730;28;20474;-74
2023/06/17 02:03:15;;;;;;;19.10;14.90;;;;;;;;;;5032807;28;20868;-74
2023/06/17 02:05:42;;;;;;;15.43;13.60;;;;;;;;;;5033082;28;20458;-74
2023/06/17 02:08:11;;;;;;;15.70;14.00;;;;;;;;;;5032908;28;20481;-74
2023/06/17 02:10:38;;;;;;;18.20;14.40;;;;;;;;;;5032634;28;20830;-74
2023/06/17 02:13:07;;;;;;;14.37;12.87;;;;;;;;;;5032603;28;20458;-75
2023/06/17 02:15:35;;;;;;;16.30;13.70;;;;;;;;;;5032494;28;20492;-74
2023/06/17 02:18:04;;;;;;;17.50;12.70;;;;;;;;;;5032584;28;20462;-74
2023/06/17 02:20:31;;;;;;;17.00;13.97;;;;;;;;;;5032296;28;21054;-74
2023/06/17 02:22:58;;;;;;;17.90;14.03;;;;;;;;;;5032608;28;20461;-74
2023/06/17 02:25:25;;;;;;;16.20;13.50;;;;;;;;;;5032350;28;20453;-74
2023/06/17 02:27:52;;;;;;;17.40;13.40;;;;;;;;;;5032596;28;20453;-74
2023/06/17 02:30:19;;;;;;;16.80;13.53;;;;;;;;;;5031726;28;20997;-74
2023/06/17 02:32:46;;;;;;;15.87;12.93;;;;;;;;;;5032822;28;20457;-74
2023/06/17 02:35:15;;;;;;;18.67;12.97;;;;;;;;;;5032450;28;20461;-74
2023/06/17 02:37:42;;;;;;;14.67;11.47;;;;;;;;;;5032586;28;20452;-74
2023/06/17 02:40:10;;;;;;;18.50;13.03;;;;;;;;;;5032103;28;20864;-74
2023/06/17 02:42:37;;;;;;;17.60;14.57;;;;;;;;;;5032789;28;20954;-74
2023/06/17 02:45:06;;;;;;;16.50;13.60;;;;;;;;;;5033199;28;20461;-74
2023/06/17 02:47:33;;;;;;;17.87;12.83;;;;;;;;;;5036091;28;20962;-74
2023/06/17 02:50:01;;;;;;;17.07;13.37;;;;;;;;;;5035795;28;20481;-74
2023/06/17 02:52:30;;;;;;;15.33;13.73;;;;;;;;;;5035822;28;20441;-74
2023/06/17 02:54:57;;;;;;;16.33;13.83;;;;;;;;;;5035852;28;20540;-74
2023/06/17 02:57:24;;;;;;;14.00;12.50;;;;;;;;;;5035705;28;20485;-74
2023/06/17 02:59:51;;;;;;;16.30;12.33;;;;;;;;;;5035482;28;20469;-74
2023/06/17 03:02:20;;;;;;;16.30;13.07;;;;;;;;;;5035835;28;20546;-74
2023/06/17 03:04:48;;;;;;;14.80;12.60;;;;;;;;;;5035757;28;20457;-74
2023/06/17 03:07:16;;;;;;;13.30;11.97;;;;;;;;;;5035673;28;20825;-74
2023/06/17 03:09:45;;;;;;;14.83;12.30;;;;;;;;;;5035413;28;20503;-74
2023/06/17 03:12:12;;;;;;;17.00;12.63;;;;;;;;;;5035657;28;20494;-74
2023/06/17 03:14:39;;;;;;;17.93;13.07;;;;;;;;;;5035064;28;20453;-75
2023/06/17 03:17:09;;;;;;;16.47;11.90;;;;;;;;;;5034775;28;21052;-74
2023/06/17 03:19:36;;;;;;;15.70;13.50;;;;;;;;;;5034654;28;20911;-74
2023/06/17 03:22:03;;;;;;;15.93;12.97;;;;;;;;;;5034567;28;20545;-74
2023/06/17 03:24:30;;;;;;;12.90;11.60;;;;;;;;;;5034786;28;20453;-74
2023/06/17 03:26:59;;;;;;;13.67;12.20;;;;;;;;;;5034549;28;20457;-74
2023/06/17 03:29:26;;;;;;;12.93;11.63;;;;;;;;;;5033646;28;20488;-74
2023/06/17 03:31:56;;;;;;;13.93;12.50;;;;;;;;;;5034734;28;20445;-74
2023/06/17 03:34:24;;;;;;;14.60;11.47;;;;;;;;;;5034510;28;20457;-74
2023/06/17 03:36:51;;;;;;;14.60;12.80;;;;;;;;;;5034568;28;20494;-74
2023/06/17 03:39:18;;;;;;;16.00;14.00;;;;;;;;;;5034312;28;20481;-74
2023/06/17 03:41:45;;;;;;;17.20;12.37;;;;;;;;;;5034383;28;20466;-74
2023/06/17 03:44:14;;;;;;;14.20;12.57;;;;;;;;;;5034144;28;20469;-74
2023/06/17 03:46:41;;;;;;;17.70;14.90;;;;;;;;;;5034230;28;20516;-74
2023/06/17 03:49:08;;;;;;;17.37;15.13;;;;;;;;;;5033993;28;20449;-74
2023/06/17 03:51:37;;;;;;;16.90;14.60;;;;;;;;;;5034214;28;20894;-74
2023/06/17 03:54:04;;;;;;;18.30;14.57;;;;;;;;;;5034125;28;20457;-74
2023/06/17 03:56:31;;;;;;;19.23;15.23;;;;;;;;;;5033119;28;20489;-74
2023/06/17 03:58:58;;;;;;;17.03;14.40;;;;;;;;;;5033871;28;20468;-74
2023/06/17 04:01:26;;;;;;;16.10;14.00;;;;;;;;;;5033964;28;20454;-74
2023/06/17 04:03:54;;;;;;;16.50;14.03;;;;;;;;;;5034118;28;21005;-74
2023/06/17 04:06:21;;;;;;;17.37;15.10;;;;;;;;;;5033712;28;20448;-74
2023/06/17 04:08:48;;;;;;;14.97;13.37;;;;;;;;;;5033687;28;20453;-74
2023/06/17 04:11:15;;;;;;;12.63;11.33;;;;;;;;;;5033781;28;20474;-74
2023/06/17 04:13:42;;;;;;;14.33;12.63;;;;;;;;;;5033593;28;20457;-74
2023/06/17 04:16:09;;;;;;;12.53;11.00;;;;;;;;;;5033603;28;20864;-75
2023/06/17 04:18:37;;;;;;;14.20;12.70;;;;;;;;;;5033471;28;20450;-75
2023/06/17 04:21:05;;;;;;;13.00;10.53;;;;;;;;;;5033559;28;20477;-74
2023/06/17 04:23:32;;;;;;;13.20;11.07;;;;;;;;;;5033805;28;20458;-75
2023/06/17 04:26:00;;;;;;;20.83;11.50;;;;;;;;;;5033683;28;20449;-74
2023/06/17 04:28:31;;;;;;;12.63;10.00;;;;;;;;;;5033142;28;20958;-74
2023/06/17 04:31:00;;;;;;;10.97;9.60;;;;;;;;;;5032962;28;20914;-75
2023/06/17 04:33:30;;;;;;;12.93;10.57;;;;;;;;;;5033773;28;20446;-73
2023/06/17 04:35:59;;;;;;;11.37;9.80;;;;;;;;;;5033526;28;20865;-73
2023/06/17 04:38:26;;;;;;;9.73;8.80;;;;;;;;;;5033409;28;20466;-73
2023/06/17 04:40:53;;;;;;;10.10;8.13;;;;;;;;;;5033403;28;20484;-73
2023/06/17 04:43:22;;;;;;;9.50;7.77;;;;;;;;;;5033198;28;20535;-73
2023/06/17 04:45:49;;;;;;;9.03;8.13;;;;;;;;;;5033185;28;20481;-74
2023/06/17 04:48:16;;;;;;;10.97;9.43;;;;;;;;;;5033047;28;20557;-73
2023/06/17 04:50:44;;;;;;;9.90;8.57;;;;;;;;;;5033092;28;20489;-73
2023/06/17 04:53:12;;;;;;;8.07;7.00;;;;;;;;;;5033190;28;20866;-73
2023/06/17 04:55:39;;;;;;;7.17;6.50;;;;;;;;;;5032912;28;20950;-73
2023/06/17 04:58:07;;;;;;;9.43;6.80;;;;;;;;;;5040399;28;20959;-74
2023/06/17 05:00:34;;;;;;;8.40;7.50;;;;;;;;;;5052481;28;20484;-74
2023/06/17 05:03:01;;;;;;;8.20;7.40;;;;;;;;;;5052982;28;20520;-74
2023/06/17 05:05:28;;;;;;;8.07;7.07;;;;;;;;;;5053050;28;20460;-73
2023/06/17 05:07:55;;;;;;;7.73;7.03;;;;;;;;;;5052744;28;20441;-73
2023/06/17 05:10:24;;;;;;;6.63;6.00;;;;;;;;;;5052556;28;20476;-73
2023/06/17 05:12:51;;;;;;;7.83;7.00;;;;;;;;;;5051115;28;20453;-73
2023/06/17 05:15:18;;;;;;;6.93;6.33;;;;;;;;;;5052404;28;20540;-73
2023/06/17 05:17:45;;;;;;;6.67;5.00;;;;;;;;;;5052298;28;20492;-74
2023/06/17 05:20:12;;;;;;;6.63;5.90;;;;;;;;;;5052050;28;20469;-74
2023/06/17 05:22:39;;;;;;;11.60;6.50;;;;;;;;;;5052286;28;20471;-74
2023/06/17 05:25:07;;;;;;;7.70;5.70;;;;;;;;;;5052454;28;20948;-73
2023/06/17 05:27:38;;;;;;;10.30;6.30;;;;;;;;;;5052491;28;20540;-74
2023/06/17 05:30:06;;;;;;;6.87;6.17;;;;;;;;;;5051748;28;20473;-74
2023/06/17 05:32:33;;;;;;;7.70;5.20;;;;;;;;;;5052791;28;20453;-74
2023/06/17 05:35:00;;;;;;;6.40;5.80;;;;;;;;;;5052414;28;20475;-74
2023/06/17 05:37:27;;;;;;;5.90;5.40;;;;;;;;;;5052629;28;20906;-73
2023/06/17 05:39:54;;;;;;;5.60;5.10;;;;;;;;;;5052229;28;20858;-74
2023/06/17 05:42:22;;;;;;;7.53;5.43;;;;;;;;;;5052795;28;20458;-74
2023/06/17 05:44:50;;;;;;;5.70;5.20;;;;;;;;;;5052718;28;20466;-74
2023/06/17 05:47:17;;;;;;;5.90;5.50;;;;;;;;;;5052719;28;20449;-74
2023/06/17 05:49:44;;;;;;;5.57;5.17;;;;;;;;;;5052551;28;20965;-74
2023/06/17 05:52:11;;;;;;;6.00;4.97;;;;;;;;;;5052167;28;20449;-77
2023/06/17 05:54:39;;;;;;;6.30;5.70;;;;;;;;;;5052516;28;20457;-77
2023/06/17 05:57:06;;;;;;;6.00;5.50;;;;;;;;;;5051889;28;20539;-77
2023/06/17 05:59:33;;;;;;;6.90;4.80;;;;;;;;;;5051794;28;20479;-77
2023/06/17 06:02:02;;;;;;;4.93;4.53;;;;;;;;;;5052189;28;20471;-77
2023/06/17 06:04:29;;;;;;;6.30;5.20;;;;;;;;;;5051989;28;20467;-77
2023/06/17 06:06:56;;;;;;;5.00;4.57;;;;;;;;;;5051880;28;20458;-77
2023/06/17 06:09:24;;;;;;;4.87;4.47;;;;;;;;;;5051912;28;20548;-77
2023/06/17 06:11:51;;;;;;;4.93;4.53;;;;;;;;;;5052028;28;20456;-76
2023/06/17 06:14:18;;;;;;;5.90;5.43;;;;;;;;;;5052221;28;20467;-76
2023/06/17 06:16:45;;;;;;;4.80;4.40;;;;;;;;;;5051919;28;20456;-76
2023/06/17 06:19:13;;;;;;;6.60;5.93;;;;;;;;;;5051668;28;20459;-76
2023/06/17 06:21:41;;;;;;;8.87;5.07;;;;;;;;;;5055766;28;20804;-76
2023/06/17 06:24:08;;;;;;;5.70;5.20;;;;;;;;;;5055731;28;20455;-76
2023/06/17 06:26:35;;;;;;;5.30;4.90;;;;;;;;;;5056000;28;20828;-76
2023/06/17 06:29:03;;;;;;;5.97;5.40;;;;;;;;;;5055224;28;20937;-76
2023/06/17 06:31:30;;;;;;;5.90;5.40;;;;;;;;;;5055594;28;20463;-76
2023/06/17 06:33:57;;;;;;;4.90;4.50;;;;;;;;;;5055633;28;20452;-76
2023/06/17 06:36:26;;;;;;;5.37;4.90;;;;;;;;;;5055701;28;20448;-75
2023/06/17 06:38:53;;;;;;;5.90;5.23;;;;;;;;;;5055489;28;20487;-76
2023/06/17 06:41:20;;;;;;;5.20;4.80;;;;;;;;;;5055557;28;20837;-76
2023/06/17 06:43:47;;;;;;;5.50;5.00;;;;;;;;;;5055589;28;20458;-77
2023/06/17 06:46:14;;;;;;;6.13;5.53;;;;;;;;;;5055378;28;20456;-76
2023/06/17 06:48:41;;;;;;;5.77;5.27;;;;;;;;;;5055562;28;20503;-76
2023/06/17 06:51:08;;;;;;;5.30;4.90;;;;;;;;;;5055368;28;20474;-76
2023/06/17 06:53:37;;;;;;;5.50;5.00;;;;;;;;;;5055299;28;20463;-76
2023/06/17 06:56:04;;;;;;;5.20;4.80;;;;;;;;;;5055335;28;20498;-76
2023/06/17 06:58:33;;;;;;;6.10;5.30;;;;;;;;;;5055056;28;20996;-76
2023/06/17 07:01:00;;;;;;;7.03;4.10;;;;;;;;;;5055065;28;20473;-76
2023/06/17 07:03:27;;;;;;;6.43;5.30;;;;;;;;;;5054996;28;20468;-76
2023/06/17 07:05:55;;;;;;;8.03;6.37;;;;;;;;;;5055487;28;20455;-75
2023/06/17 07:08:22;;;;;;;6.57;5.37;;;;;;;;;;5054998;28;20468;-76
2023/06/17 07:10:50;;;;;;;9.20;5.40;;;;;;;;;;5056043;28;21071;-76
2023/06/17 07:13:18;;;;;;;5.87;5.33;;;;;;;;;;5055142;28;20445;-76
2023/06/17 07:15:45;;;;;;;5.30;4.80;;;;;;;;;;5055129;28;20448;-75
2023/06/17 07:18:12;;;;;;;6.23;5.73;;;;;;;;;;5054934;28;20484;-76
2023/06/17 07:20:39;;;;;;;6.90;5.67;;;;;;;;;;5054914;28;20508;-75
2023/06/17 07:23:06;;;;;;;5.93;5.33;;;;;;;;;;5054886;28;20456;-75
2023/06/17 07:25:33;;;;;;;10.47;6.00;;;;;;;;;;5054769;28;20452;-76
2023/06/17 07:28:02;;;;;;;5.50;4.50;;;;;;;;;;5054629;28;20464;-76
2023/06/17 07:30:31;;;;;;;8.87;5.40;;;;;;;;;;5053973;28;20481;-76
2023/06/17 07:32:58;;;;;;;6.20;5.53;;;;;;;;;;5054569;28;20816;-76
2023/06/17 07:35:25;;;;;;;5.83;5.10;;;;;;;;;;5054448;28;20456;-76
2023/06/17 07:37:52;;;;;;;5.97;5.37;;;;;;;;;;5054436;28;20492;-75
2023/06/17 07:40:20;;;;;;;6.40;5.80;;;;;;;;;;5054212;28;20487;-76
2023/06/17 07:42:47;;;;;;;14.23;5.87;;;;;;;;;;5054471;28;20906;-75
2023/06/17 07:45:16;;;;;;;6.40;5.37;;;;;;;;;;5053970;28;20475;-76
2023/06/17 07:47:43;;;;;;;5.97;5.00;;;;;;;;;;5035107;28;20500;-74
2023/06/17 07:50:10;;;;;;;7.83;5.43;;;;;;;;;;5034085;28;20521;-76
2023/06/17 07:52:38;;;;;;;7.07;6.17;;;;;;;;;;5034116;28;20453;-76
2023/06/17 07:55:05;;;;;;;6.20;5.67;;;;;;;;;;5034208;28;20453;-76
2023/06/17 07:57:32;;;;;;;5.60;5.10;;;;;;;;;;5033891;28;20489;-76
2023/06/17 08:00:00;;;;;;;5.40;4.90;;;;;;;;;;5033478;28;21015;-77
2023/06/17 08:02:28;;;;;;;9.73;5.23;;;;;;;;;;5052175;28;20492;-76
2023/06/17 08:04:55;;;;;;;6.20;5.60;;;;;;;;;;5052619;28;20953;-76
2023/06/17 08:07:22;;;;;;;6.50;5.50;;;;;;;;;;5052289;28;20945;-76
2023/06/17 08:09:49;;;;;;;5.73;5.07;;;;;;;;;;5052495;28;20461;-76
2023/06/17 08:12:16;;;;;;;5.63;4.83;;;;;;;;;;5052315;28;20461;-77
2023/06/17 08:14:44;;;;;;;5.90;5.30;;;;;;;;;;5052413;28;20953;-76
2023/06/17 08:17:11;;;;;;;8.77;5.17;;;;;;;;;;5052366;28;20461;-77
2023/06/17 08:19:40;;;;;;;4.97;4.57;;;;;;;;;;5052184;28;20945;-76
2023/06/17 08:22:08;;;;;;;6.10;5.50;;;;;;;;;;5052097;28;20464;-76
2023/06/17 08:24:35;;;;;;;5.07;4.60;;;;;;;;;;5052495;28;20836;-77
2023/06/17 08:27:02;;;;;;;8.10;5.13;;;;;;;;;;5053290;28;20498;-78
2023/06/17 08:29:30;;;;;;;7.43;4.80;;;;;;;;;;5052303;28;20844;-78
2023/06/17 08:31:58;;;;;;;4.53;4.13;;;;;;;;;;5052295;28;20457;-75
2023/06/17 08:34:27;;;;;;;5.60;5.10;;;;;;;;;;5052878;28;20456;-75
2023/06/17 08:36:56;;;;;;;6.20;4.83;;;;;;;;;;5052677;28;20484;-75
2023/06/17 08:39:23;;;;;;;5.63;5.23;;;;;;;;;;5052401;28;20492;-75
2023/06/17 08:41:51;;;;;;;5.50;4.70;;;;;;;;;;5053141;28;20865;-75
2023/06/17 08:44:20;;;;;;;5.67;4.80;;;;;;;;;;5052165;28;20953;-75
2023/06/17 08:46:48;;;;;;;4.90;4.40;;;;;;;;;;5053219;28;20904;-74
2023/06/17 08:49:17;;;;;;;6.80;4.67;;;;;;;;;;5052811;28;20464;-75
2023/06/17 08:51:44;;;;;;;5.50;4.93;;;;;;;;;;5053317;28;20460;-75
2023/06/17 08:54:12;;;;;;;5.23;4.80;;;;;;;;;;5053362;28;20459;-75
2023/06/17 08:56:40;;;;;;;4.40;4.03;;;;;;;;;;5053224;28;20476;-75
2023/06/17 08:59:07;;;;;;;6.40;4.93;;;;;;;;;;5052621;28;20481;-75
2023/06/17 09:01:34;;;;;;;5.50;5.00;;;;;;;;;;5053463;28;20464;-74
2023/06/17 09:04:02;;;;;;;7.43;5.17;;;;;;;;;;5053428;28;20965;-74
2023/06/17 09:06:30;;;;;;;5.83;5.33;;;;;;;;;;5053110;28;20461;-73
2023/06/17 09:08:57;;;;;;;5.00;4.60;;;;;;;;;;5053069;28;20808;-73
2023/06/17 09:11:27;;;;;;;9.23;4.87;;;;;;;;;;5053020;28;20945;-73
2023/06/17 09:13:54;;;;;;;6.50;5.00;;;;;;;;;;5052997;28;21020;-73
2023/06/17 09:16:25;;;;;;;5.33;4.43;;;;;;;;;;5052973;28;20456;-73
2023/06/17 09:18:55;;;;;;;5.87;5.37;;;;;;;;;;5052668;28;20469;-73
2023/06/17 09:21:22;;;;;;;7.23;5.60;;;;;;;;;;5052493;28;20989;-73
2023/06/17 09:23:56;;;;;;;6.90;6.10;;;;;;;;;;5052900;28;20523;-73
2023/06/17 09:26:30;;;;;;;5.50;4.90;;;;;;;;;;5052346;28;20495;-72
2023/06/17 09:29:01;;;;;;;7.43;5.47;;;;;;;;;;5052470;28;20443;-72
2023/06/17 09:31:29;;;;;;;6.70;4.53;;;;;;;;;;5052453;28;20472;-72
2023/06/17 09:33:57;;;;;;;9.20;4.87;;;;;;;;;;5052759;28;20461;-73
2023/06/17 09:36:24;;;;;;;9.03;5.50;;;;;;;;;;5052533;28;20456;-73
2023/06/17 09:38:52;;;;;;;6.70;5.10;;;;;;;;;;5052132;28;21064;-72
2023/06/17 09:41:20;;;;;;;6.30;5.70;;;;;;;;;;5052605;28;20476;-72
2023/06/17 09:43:52;;;;;;;5.07;4.67;;;;;;;;;;5052337;28;20822;-72
2023/06/17 09:46:25;;;;;;;5.70;5.20;;;;;;;;;;5052337;28;20440;-72
2023/06/17 09:48:53;;;;;;;6.93;5.10;;;;;;;;;;5052435;28;20441;-72
2023/06/17 09:51:23;;;;;;;5.60;5.00;;;;;;;;;;5052363;28;20562;-72
2023/06/17 09:53:51;;;;;;;5.37;4.60;;;;;;;;;;5052546;28;20481;-72
2023/06/17 09:56:19;;;;;;;5.70;5.20;;;;;;;;;;5055629;28;20484;-72
2023/06/17 09:58:47;;;;;;;4.93;4.53;;;;;;;;;;5056347;28;20520;-72
2023/06/17 10:01:16;;;;;;;6.57;4.87;;;;;;;;;;5056128;28;20484;-72
2023/06/17 10:03:43;;;;;;;5.90;5.30;;;;;;;;;;5056323;28;20599;-72
2023/06/17 10:06:10;;;;;;;5.47;4.97;;;;;;;;;;5056005;28;20465;-72
2023/06/17 10:08:38;;;;;;;6.60;5.63;;;;;;;;;;5056217;28;20453;-72
2023/06/17 10:11:05;;;;;;;12.63;5.83;;;;;;;;;;5056053;28;20476;-72
2023/06/17 10:13:33;;;;;;;7.20;5.50;;;;;;;;;;5054405;28;20828;-72
2023/06/17 10:16:01;;;;;;;7.33;5.67;;;;;;;;;;5054562;28;20480;-72
2023/06/17 10:18:30;;;;;;;6.27;4.90;;;;;;;;;;5054377;28;20484;-72
2023/06/17 10:20:58;;;;;;;7.20;6.23;;;;;;;;;;5054485;28;20477;-72
2023/06/17 10:23:26;;;;;;;9.47;5.37;;;;;;;;;;5054404;28;20459;-72
2023/06/17 10:25:54;;;;;;;6.70;5.73;;;;;;;;;;5054730;28;20460;-72
2023/06/17 10:28:21;;;;;;;5.90;5.30;;;;;;;;;;5054374;28;20464;-72
2023/06/17 10:30:51;;;;;;;6.13;5.60;;;;;;;;;;5053788;28;20476;-72
2023/06/17 10:33:27;;;;;;;7.10;5.40;;;;;;;;;;5054176;28;20453;-72
2023/06/17 10:36:07;;;;;;;4.63;4.23;;;;;;;;;;5054289;28;20527;-72
2023/06/17 10:38:34;;;;;;;6.80;6.20;;;;;;;;;;5054130;28;21023;-72
2023/06/17 10:41:01;;;;;;;6.27;5.67;;;;;;;;;;5055101;28;20472;-72
2023/06/17 10:43:29;;;;;;;6.97;6.17;;;;;;;;;;5054963;28;20458;-72
2023/06/17 10:45:57;;;;;;;9.50;5.77;;;;;;;;;;5055401;28;21040;-72
2023/06/17 10:48:25;;;;;;;6.77;5.40;;;;;;;;;;5055314;28;20451;-72
2023/06/17 10:50:53;;;;;;;6.47;5.87;;;;;;;;;;5055168;28;20472;-72
2023/06/17 10:53:27;;;;;;;11.67;5.87;;;;;;;;;;5055092;28;20460;-72
2023/06/17 10:55:54;;;;;;;6.17;5.57;;;;;;;;;;5055009;28;20487;-72
2023/06/17 10:58:21;;;;;;;6.70;5.13;;;;;;;;;;5054982;28;20484;-72
2023/06/17 11:00:58;;;;;;;7.10;6.50;;;;;;;;;;5055251;28;20484;-72
2023/06/17 11:03:25;;;;;;;6.80;6.20;;;;;;;;;;5055127;28;20452;-72
2023/06/17 11:05:53;;;;;;;8.10;5.47;;;;;;;;;;5054492;28;20553;-72
2023/06/17 11:08:20;;;;;;;6.10;5.60;;;;;;;;;;5054914;28;20972;-72
2023/06/17 11:10:49;;;;;;;5.60;5.00;;;;;;;;;;5055057;28;20472;-72
2023/06/17 11:13:20;;;;;;;7.40;5.63;;;;;;;;;;5055038;28;20820;-72
2023/06/17 11:15:47;;;;;;;7.00;5.60;;;;;;;;;;5055087;28;20448;-72
2023/06/17 11:18:15;;;;;;;6.03;5.43;;;;;;;;;;5055153;28;20449;-73
2023/06/17 11:20:42;;;;;;;8.80;5.40;;;;;;;;;;5054683;28;20477;-73
2023/06/17 11:23:10;;;;;;;6.67;5.97;;;;;;;;;;5055215;28;20460;-73
2023/06/17 11:25:38;;;;;;;6.30;4.67;;;;;;;;;;5055173;28;20507;-73
2023/06/17 11:28:06;;;;;;;5.73;5.23;;;;;;;;;;5054781;28;20547;-73
2023/06/17 11:30:35;;;;;;;5.87;5.37;;;;;;;;;;5054967;28;20973;-73
2023/06/17 11:33:03;;;;;;;6.00;5.23;;;;;;;;;;5054623;28;20433;-73
2023/06/17 11:35:30;;;;;;;5.33;4.60;;;;;;;;;;5054432;28;20448;-73
2023/06/17 11:37:57;;;;;;;6.80;5.37;;;;;;;;;;5054554;28;20475;-72
2023/06/17 11:40:24;;;;;;;5.30;4.80;;;;;;;;;;5054266;28;20500;-72
2023/06/17 11:42:52;;;;;;;5.47;4.97;;;;;;;;;;5054386;28;20879;-73
2023/06/17 11:45:21;;;;;;;6.43;4.80;;;;;;;;;;5054237;28;20461;-73
2023/06/17 11:47:48;;;;;;;4.97;4.57;;;;;;;;;;5054591;28;20464;-73
2023/06/17 11:50:16;;;;;;;6.63;6.03;;;;;;;;;;5054405;28;20465;-73
2023/06/17 11:52:53;;;;;;;6.07;5.57;;;;;;;;;;5054656;28;20460;-73
2023/06/17 11:55:20;;;;;;;6.03;5.33;;;;;;;;;;5054615;28;20833;-73
2023/06/17 11:57:48;;;;;;;6.20;5.27;;;;;;;;;;5054151;28;20831;-73
2023/06/17 12:00:15;;;;;;;10.23;5.77;;;;;;;;;;5054370;28;20579;-72
2023/06/17 12:02:44;;;;;;;6.40;5.33;;;;;;;;;;5053364;28;20510;-72
2023/06/17 12:05:11;;;;;;;6.60;5.03;;;;;;;;;;5054067;28;20437;-73
2023/06/17 12:07:39;;;;;;;5.67;5.17;;;;;;;;;;5054244;28;20453;-73
2023/06/17 12:10:07;;;;;;;10.17;5.30;;;;;;;;;;5054024;28;20849;-72
2023/06/17 12:12:35;;;;;;;7.00;5.40;;;;;;;;;;5054114;28;20506;-73
2023/06/17 12:15:03;;;;;;;6.47;5.90;;;;;;;;;;5053984;28;20859;-73
2023/06/17 12:17:37;;;;;;;8.03;4.70;;;;;;;;;;5053275;28;20770;-73
2023/06/17 12:20:07;;;;;;;6.87;6.13;;;;;;;;;;5053513;28;20545;-72
2023/06/17 12:22:34;;;;;;;12.53;5.20;;;;;;;;;;5054466;28;20563;-72
2023/06/17 12:25:02;;;;;;;6.03;5.53;;;;;;;;;;5050289;28;21039;-72
2023/06/17 12:27:30;;;;;;;6.30;5.73;;;;;;;;;;5052485;28;20479;-72
2023/06/17 12:30:00;;;;;;;8.10;5.90;;;;;;;;;;5052589;28;20559;-72
2023/06/17 12:32:27;;;;;;;6.37;5.33;;;;;;;;;;5052478;28;20457;-72
2023/06/17 12:34:54;;;;;;;6.60;5.20;;;;;;;;;;5052348;28;20475;-72
2023/06/17 12:37:26;;;;;;;7.03;5.50;;;;;;;;;;5052211;28;20457;-73
2023/06/17 12:39:54;;;;;;;7.50;5.47;;;;;;;;;;5052158;28;20607;-72
2023/06/17 12:42:22;;;;;;;5.43;4.90;;;;;;;;;;5052007;28;20453;-73
2023/06/17 12:44:50;;;;;;;5.70;5.10;;;;;;;;;;5052274;28;21027;-73
2023/06/17 12:47:18;;;;;;;5.87;5.20;;;;;;;;;;5051930;28;20968;-73
2023/06/17 12:49:45;;;;;;;7.20;5.37;;;;;;;;;;5052282;28;20530;-73
2023/06/17 12:52:12;;;;;;;7.00;5.43;;;;;;;;;;5051894;28;20483;-72
2023/06/17 12:54:40;;;;;;;6.47;5.87;;;;;;;;;;5051726;28;20459;-73
2023/06/17 12:57:08;;;;;;;6.30;5.70;;;;;;;;;;5051549;28;20459;-72
2023/06/17 12:59:35;;;;;;;6.40;5.80;;;;;;;;;;5051919;28;20929;-72
2023/06/17 13:02:02;;;;;;;5.60;5.10;;;;;;;;;;5051619;28;20464;-72
2023/06/17 13:04:29;;;;;;;6.40;5.53;;;;;;;;;;5051664;28;20460;-72
2023/06/17 13:06:57;;;;;;;6.20;5.57;;;;;;;;;;5051714;28;20465;-72
2023/06/17 13:09:25;;;;;;;6.73;5.83;;;;;;;;;;5051065;28;21046;-72
2023/06/17 13:11:53;;;;;;;5.67;5.00;;;;;;;;;;5051565;28;20457;-72
2023/06/17 13:14:20;;;;;;;6.00;5.27;;;;;;;;;;5051434;28;20452;-72
2023/06/17 13:16:47;;;;;;;8.83;5.63;;;;;;;;;;5051703;28;20942;-72
2023/06/17 13:19:15;;;;;;;5.50;5.00;;;;;;;;;;5051067;28;20481;-73
2023/06/17 13:21:43;;;;;;;7.10;6.37;;;;;;;;;;5051624;28;20465;-72
2023/06/17 13:24:10;;;;;;;6.90;5.60;;;;;;;;;;5051318;28;20468;-72
2023/06/17 13:26:37;;;;;;;6.40;5.80;;;;;;;;;;5051407;28;20834;-72
2023/06/17 13:29:05;;;;;;;7.90;4.93;;;;;;;;;;5051362;28;20491;-72
2023/06/17 13:31:33;;;;;;;5.80;5.20;;;;;;;;;;5051868;28;20437;-72
2023/06/17 13:34:00;;;;;;;7.80;6.23;;;;;;;;;;5052038;28;20456;-72
2023/06/17 13:36:27;;;;;;;5.93;5.40;;;;;;;;;;5052856;28;20965;-72
2023/06/17 13:38:55;;;;;;;6.93;5.83;;;;;;;;;;5052499;28;20476;-72
2023/06/17 13:41:22;;;;;;;8.17;5.73;;;;;;;;;;5052131;28;21000;-71
2023/06/17 13:43:49;;;;;;;7.70;5.30;;;;;;;;;;5051992;28;20460;-71
2023/06/17 13:46:17;;;;;;;5.73;5.23;;;;;;;;;;5051994;28;20444;-71
2023/06/17 13:48:44;;;;;;;5.60;5.17;;;;;;;;;;5051916;28;20472;-71
2023/06/17 13:51:12;;;;;;;5.73;5.13;;;;;;;;;;5052446;28;20468;-71
2023/06/17 13:53:39;;;;;;;8.20;6.40;;;;;;;;;;5052139;28;20453;-71
2023/06/17 13:56:06;;;;;;;7.63;5.07;;;;;;;;;;5052092;28;20530;-71
2023/06/17 13:58:33;;;;;;;7.30;5.40;;;;;;;;;;5052085;28;20479;-71
2023/06/17 14:01:01;;;;;;;6.10;5.60;;;;;;;;;;5052450;28;20930;-71
2023/06/17 14:03:31;;;;;;;6.13;5.40;;;;;;;;;;5052104;28;20456;-72
2023/06/17 14:05:59;;;;;;;7.70;5.73;;;;;;;;;;5052369;28;20489;-72
2023/06/17 14:08:26;;;;;;;5.93;5.33;;;;;;;;;;5052104;28;20453;-72
2023/06/17 14:10:53;;;;;;;5.63;5.13;;;;;;;;;;5051998;28;20480;-72
2023/06/17 14:13:20;;;;;;;5.83;5.23;;;;;;;;;;5052191;28;20822;-72
2023/06/17 14:15:47;;;;;;;4.83;4.40;;;;;;;;;;5052024;28;20453;-72
2023/06/17 14:18:14;;;;;;;6.27;5.77;;;;;;;;;;5051761;28;20460;-71
2023/06/17 14:20:42;;;;;;;6.43;5.73;;;;;;;;;;5051769;28;20614;-72
2023/06/17 14:23:10;;;;;;;7.20;5.40;;;;;;;;;;5051937;28;20968;-72
2023/06/17 14:25:37;;;;;;;7.67;5.50;;;;;;;;;;5051967;28;20838;-72
2023/06/17 14:28:04;;;;;;;6.03;5.40;;;;;;;;;;5052212;28;20453;-72
2023/06/17 14:30:31;;;;;;;6.77;5.00;;;;;;;;;;5051489;28;20991;-71
2023/06/17 14:32:58;;;;;;;7.67;5.23;;;;;;;;;;5051944;28;20460;-71
2023/06/17 14:35:25;;;;;;;6.13;5.00;;;;;;;;;;5051889;28;20448;-71
2023/06/17 14:37:54;;;;;;;8.50;5.20;;;;;;;;;;5051771;28;20444;-71